Historical Weather Data

Soule Park Golf Course
1033 East Ojai Ave
Ojai, CA 93023
Date ET
(Inches)
Rain
(Inches)
Temp °F
Humidity
Avg
Wind MPH
Avg
Solar Wm2
Avg
High Ave Low
3/1/17 0.15 0.00 73.6 52.3 34.2 58 2.7 242
3/2/17 0.14 0.00 79.1 55.2 35.1 51 2.5 220
3/3/17 0.16 0.00 80.0 56.6 35.6 46 2.7 239
3/4/17 0.11 0.00 70.5 53.0 39.0 67 2.3 188
3/5/17 0.07 0.16 60.2 48.0 36.1 77 3.0 132
3/6/17 0.13 0.00 61.7 46.5 31.8 61 2.7 252
3/7/17 0.14 0.00 76.2 54.0 34.3 59 2.3 234
3/8/17 0.17 0.00 83.3 61.6 42.1 55 2.5 247
3/9/17 0.18 0.00 86.4 64.4 45.3 55 2.7 255
3/10/17 0.13 0.00 81.7 63.1 47.3 62 2.3 195
3/11/17 0.18 0.00 85.3 65.1 45.8 57 2.8 255
3/12/17 0.19 0.00 88.9 67.8 48.4 46 2.8 259
3/13/17 0.19 0.00 91.2 68.3 48.4 50 2.5 262
3/14/17 0.17 0.00 88.5 66.4 46.6 51 2.3 245
3/15/17 0.19 0.00 86.3 66.6 49.9 52 2.8 258
3/16/17 0.17 0.00 81.7 63.4 46.3 62 2.5 258
3/17/17 0.16 0.00 83.0 63.2 47.1 64 2.2 240
3/18/17 0.15 0.00 79.6 59.5 45.0 76 2.5 249
3/19/17 0.15 0.00 80.3 58.4 41.4 72 2.5 247
3/20/17 0.11 0.00 68.3 57.3 50.6 77 2.8 201
3/21/17 0.03 0.69 59.8 55.8 51.7 95 1.3 62
3/22/17 0.13 0.04 66.1 57.0 44.8 80 3.2 241
3/23/17 0.16 0.00 68.0 54.5 42.0 66 3.1 280
3/24/17 0.14 0.01 67.5 54.1 39.9 77 2.8 263
3/25/17 0.13 0.00 67.4 56.3 47.2 83 3.0 249
3/26/17 0.13 0.00 68.9 55.6 42.1 77 2.6 240
3/27/17 0.19 0.00 74.2 58.1 44.0 56 3.5 291
3/28/17 0.19 0.00 77.0 60.6 43.8 47 3.1 283
3/29/17 0.21 0.00 83.4 64.0 44.0 46 3.1 288
3/30/17 0.19 0.00 78.2 61.8 46.2 48 4.1 298
3/31/17 0.20 0.00 71.3 60.4 48.4 33 4.0 295